• Join FlightAware (Why Join?)
  • Login
  • US Flag 
11:37PM EDT


 

Airport Tracker/Info


-or-


 

Live Flight TrackerFlight Track Log ✈ N30KC ✈ 11-May-2013 ✈ KCFD - KMNZ

Flight Track Log - Related Links

Times and Time Zones

All times are in EDT time to prevent confusion due to time zone crossing. See the N30KC flight status page for this flight to view local times or setup timezone preferences in your user account.

Time Position Orientation Groundspeed Altitude Reporting Facility
EDT Latitude Longitude Course Direction KTS MPH feet Rate Location/Type
06:26PM 30.7547 -96.4256 305° West 125 144 2,300  Level Houston Center
06:27PM 30.7914 -96.4869 305° West 134 154 3,400 600 Climbing Houston Center
06:28PM 30.8017 -96.4989 315° West 132 152 3,600 540 Climbing Houston Center
06:28PM 30.8150 -96.5208 305° West 136 157 4,000 540 Climbing Houston Center
06:29PM 30.8264 -96.5331 317° Northwest 135 155 4,200 540 Climbing Houston Center
06:29PM 30.8408 -96.5544 308° West 137 158 4,600 540 Climbing Houston Center
06:30PM 30.8514 -96.5672 314° West 136 157 4,800 480 Climbing Houston Center
06:30PM 30.8611 -96.5961 291° West 141 162 5,100 480 Climbing Houston Center
06:31PM 30.8686 -96.6103 302° West 142 163 5,300 480 Climbing Houston Center
06:32PM 30.8792 -96.6378 294° West 150 173 5,600 540 Climbing Houston Center
06:32PM 30.8861 -96.6528 298° West 146 168 5,900 660 Climbing Houston Center
06:33PM 30.8972 -96.6794 296° West 139 160 6,300 540 Climbing Houston Center
06:33PM 30.9064 -96.6911 312° West 139 160 6,500 540 Climbing Houston Center
06:34PM 30.9269 -96.7317 301° West 143 165 7,100 540 Climbing Houston Center
06:35PM 30.9494 -96.7678 306° West 138 159 7,700 540 Climbing Houston Center
06:36PM 30.9706 -96.8072 302° West 141 162 8,200 480 Climbing Houston Center
06:37PM 30.9925 -96.8478 302° West 147 169 8,800 540 Climbing Houston Center
06:38PM 31.0139 -96.8886 301° West 146 168 9,400 540 Climbing Houston Center
06:39PM 31.0358 -96.9289 302° West 146 168 10,000 480 Climbing Houston Center
06:40PM 31.0575 -96.9708 301° West 150 173 10,400 180 Climbing Houston Center
06:41PM 31.0811 -97.0153 302° West 160 184 10,400  Level Houston Center
06:42PM 31.1092 -97.0658 303° West 159 183 10,400  Level Houston Center
06:43PM 31.1317 -97.1108 300° West 160 184 10,400  Level Houston Center
06:44PM 31.1564 -97.1550 303° West 161 185 10,400  Level Houston Center
06:45PM 31.1792 -97.2000 301° West 160 184 10,400  Level Houston Center
06:46PM 31.2031 -97.2450 302° West 162 186 10,400  Level Houston Center
06:47PM 31.2258 -97.2897 301° West 160 184 10,400  Level Houston Center
06:48PM 31.2503 -97.3350 302° West 162 186 10,400 -300 Level Houston Center
06:49PM 31.2750 -97.3828 301° West 168 193 9,900 -540 Descending Houston Center
06:50PM 31.3008 -97.4400 298° West 178 205 9,400 -540 Descending Fort Worth Center
06:51PM 31.3281 -97.4911 302° West 178 205 8,900 -540 Descending Fort Worth Center